Terminal Aerodrome Forecast
Issued by NWS Portland, OR

Home | Current Version | Previous Version | Text Only | Print | Product List | Glossary On
Versions: 1 2 3 4 5 6 7 8 9 10 11 12 13 14 15 16 17 18 19 20 21 22 23 24 25 26 27 28 29 30 31 32 33 34 35 36 37 38 39 40 41
000
FTUS46 KPQR 310520
TAFAST
TAF
KAST 310520Z 3106/0106 22004KT P6SM VCSH SCT020 BKN035
     FM310800 22004KT P6SM SCT015 OVC020
     FM311400 20003KT P6SM BKN015 BKN025
     FM312000 27008KT P6SM BKN035 BKN050=

USA.gov is the U.S. government's official web portal to all federal, state and local government web resources and services.